Time;durP1;ratioP1;P1;durP2;ratioP2;P2;SDS_P1;SDS_P2;PMS_P1;PMS_P2;Temp;Humidity;BMP_temperature;BMP_pressure;BME280_temperature;BME280_humidity;BME280_pressure;Samples;Min_cycle;Max_cycle;Signal;HPM_P1;HPM_P2
2022/09/30 00:02:31;;;;;;;3.20;1.80;;;;;;;;;;5102865;28;20038;-87
2022/09/30 00:05:18;;;;;;;3.88;2.60;;;;;;;;;;5125963;27;20042;-86
2022/09/30 00:08:02;;;;;;;2.58;1.48;;;;;;;;;;5084720;28;20116;-87
2022/09/30 00:10:47;;;;;;;3.45;1.65;;;;;;;;;;5114322;27;20086;-87
2022/09/30 00:13:33;;;;;;;2.70;1.40;;;;;;;;;;5099995;28;20503;-86
2022/09/30 00:16:19;;;;;;;3.28;1.33;;;;;;;;;;5098777;28;20081;-87
2022/09/30 00:19:04;;;;;;;2.53;1.73;;;;;;;;;;5119116;27;20096;-86
2022/09/30 00:21:49;;;;;;;2.75;1.70;;;;;;;;;;5116867;27;20498;-87
2022/09/30 00:24:36;;;;;;;5.57;1.63;;;;;;;;;;5111648;27;20485;-87
2022/09/30 00:27:21;;;;;;;2.40;1.40;;;;;;;;;;5105669;27;20029;-86
2022/09/30 00:30:05;;;;;;;2.75;1.65;;;;;;;;;;5098858;28;20058;-87
2022/09/30 00:32:50;;;;;;;3.65;1.58;;;;;;;;;;5092764;27;20469;-86
2022/09/30 00:35:36;;;;;;;2.33;1.80;;;;;;;;;;5116755;27;20551;-86
2022/09/30 00:38:21;;;;;;;3.53;1.88;;;;;;;;;;5112668;27;20084;-86
2022/09/30 00:41:05;;;;;;;2.70;1.65;;;;;;;;;;5098234;28;20042;-86
2022/09/30 00:43:52;;;;;;;2.53;1.55;;;;;;;;;;5105800;27;20046;-87
2022/09/30 00:46:38;;;;;;;4.78;2.10;;;;;;;;;;5118040;27;20042;-87
2022/09/30 00:49:24;;;;;;;5.20;1.77;;;;;;;;;;5108596;27;20737;-86
2022/09/30 00:52:12;;;;;;;3.05;1.50;;;;;;;;;;5098833;28;20174;-87
2022/09/30 00:54:58;;;;;;;3.25;1.40;;;;;;;;;;5112755;27;20065;-87
2022/09/30 00:57:43;;;;;;;2.00;1.30;;;;;;;;;;5107707;27;20060;-87
2022/09/30 01:00:27;;;;;;;2.47;1.60;;;;;;;;;;5114668;27;20077;-87
2022/09/30 01:03:12;;;;;;;2.80;1.52;;;;;;;;;;5110358;27;20111;-87
2022/09/30 01:05:57;;;;;;;2.97;1.67;;;;;;;;;;5120214;27;20114;-87
2022/09/30 01:08:41;;;;;;;3.50;2.08;;;;;;;;;;5133058;27;20401;-87
2022/09/30 01:11:29;;;;;;;3.10;1.75;;;;;;;;;;5113283;28;20103;-87
2022/09/30 01:14:16;;;;;;;3.17;1.67;;;;;;;;;;5097570;28;20119;-86
2022/09/30 01:17:00;;;;;;;3.20;1.70;;;;;;;;;;5111764;27;20056;-87
2022/09/30 01:19:56;;;;;;;3.00;1.83;;;;;;;;;;5106114;27;20403;-86
2022/09/30 01:22:56;;;;;;;2.60;1.40;;;;;;;;;;5103992;27;20088;-87
2022/09/30 01:25:47;;;;;;;2.47;1.55;;;;;;;;;;5118574;27;20499;-87
2022/09/30 01:28:37;;;;;;;2.72;1.67;;;;;;;;;;5097476;28;20396;-88
2022/09/30 01:31:59;;;;;;;3.38;2.05;;;7.10;99.90;;;;;;5111584;28;20088;-88
2022/09/30 01:34:58;;;;;;;2.92;1.77;;;;;;;;;;5112064;28;20046;-86
2022/09/30 01:37:51;;;;;;;3.13;1.83;;;;;;;;;;5128435;27;20432;-86
2022/09/30 01:40:38;;;;;;;3.70;1.73;;;;;;;;;;5108224;27;20517;-87
2022/09/30 01:43:30;;;;;;;2.78;1.83;;;;;;;;;;5097448;28;20034;-86
2022/09/30 01:46:29;;;;;;;3.13;1.80;;;;;;;;;;5111427;27;20535;-87
2022/09/30 01:49:21;;;;;;;3.83;2.03;;;;;;;;;;5096823;28;20062;-87
2022/09/30 01:52:14;;;;;;;6.53;1.77;;;;;;;;;;5098162;28;20039;-86
2022/09/30 01:55:03;;;;;;;3.85;1.73;;;;;;;;;;5111843;28;20038;-87
2022/09/30 01:58:00;;;;;;;2.13;1.63;;;;;;;;;;5097823;28;20101;-86
2022/09/30 02:00:48;;;;;;;3.95;1.77;;;;;;;;;;5097479;28;20074;-86
2022/09/30 02:03:51;;;;;;;2.88;1.50;;;;;;;;;;5097024;28;20497;-86
2022/09/30 02:06:40;;;;;;;3.55;2.03;;;;;;;;;;5112149;28;20035;-87
2022/09/30 02:09:32;;;;;;;2.63;1.77;;;;;;;;;;5106949;28;20128;-87
2022/09/30 02:12:19;;;;;;;2.85;1.88;;;;;;;;;;5097578;28;20038;-87
2022/09/30 02:15:04;;;;;;;3.08;1.70;;;;;;;;;;5097545;28;20034;-87
2022/09/30 02:17:55;;;;;;;2.80;1.58;;;;;;;;;;5097622;28;20043;-87
2022/09/30 02:20:42;;;;;;;3.30;2.00;;;;;;;;;;5117155;28;20075;-86
2022/09/30 02:23:28;;;;;;;2.70;1.85;;;;;;;;;;5103737;28;20448;-87
2022/09/30 02:26:23;;;;;;;2.83;1.75;;;;;;;;;;5105167;28;20065;-87
2022/09/30 02:29:14;;;;;;;2.90;1.77;;;;;;;;;;5099008;28;20043;-86
2022/09/30 02:32:02;;;;;;;3.08;1.48;;;;;;;;;;5111172;28;20506;-87
2022/09/30 02:34:50;;;;;;;2.90;1.48;;;;;;;;;;5106007;28;20539;-86
2022/09/30 02:37:47;;;;;;;3.20;1.80;;;;;;;;;;5098984;28;20082;-86
2022/09/30 02:40:31;;;;;;;1.85;1.23;;;;;;;;;;5122288;28;20398;-86
2022/09/30 02:43:17;;;;;;;4.55;1.83;;;;;;;;;;5112930;28;20034;-86
2022/09/30 02:46:07;;;;;;;2.63;1.58;;;;;;;;;;5112520;28;20512;-87
2022/09/30 02:49:18;;;;;;;3.00;1.58;;;;;;;;;;5105658;28;20096;-87
2022/09/30 02:52:23;;;;;;;3.00;1.58;;;;;;;;;;5087024;28;20510;-86
2022/09/30 02:55:23;;;;;;;2.70;1.48;;;;;;;;;;5100776;28;20061;-87
2022/09/30 02:58:07;;;;;;;2.92;1.58;;;;;;;;;;5101495;27;20399;-86
2022/09/30 03:00:53;;;;;;;3.60;1.85;;;;;;;;;;5111507;28;20043;-86
2022/09/30 03:03:43;;;;;;;2.58;1.73;;;;;;;;;;5100023;28;20432;-86
2022/09/30 03:06:28;;;;;;;4.15;1.95;;;;;;;;;;5100261;28;20109;-86
2022/09/30 03:09:13;;;;;;;2.97;1.80;;;;;;;;;;5094663;27;20077;-87
2022/09/30 03:12:06;;;;;;;2.30;1.48;;;;;;;;;;5103745;28;20042;-86
2022/09/30 03:14:51;;;;;;;2.97;2.00;;;;;;;;;;5100713;28;20053;-87
2022/09/30 03:17:44;;;;;;;3.10;1.75;;;;;;;;;;5115313;28;20080;-86
2022/09/30 03:20:30;;;;;;;2.83;1.45;;;;;;;;;;5099728;28;20556;-87
2022/09/30 03:23:55;;;;;;;4.30;2.28;;;6.30;99.90;;;;;;5100393;28;20146;-86
2022/09/30 03:26:40;;;;;;;3.05;1.90;;;;;;;;;;5114203;28;20442;-87
2022/09/30 03:29:34;;;;;;;4.20;2.03;;;;;;;;;;5099789;28;20080;-89
2022/09/30 03:32:27;;;;;;;1.80;1.20;;;;;;;;;;5103989;28;20092;-86
2022/09/30 03:35:25;;;;;;;3.40;1.75;;;;;;;;;;5112456;27;20559;-86
2022/09/30 03:38:15;;;;;;;2.35;1.50;;;;;;;;;;5104503;27;20121;-86
2022/09/30 03:41:06;;;;;;;3.97;2.20;;;;;;;;;;5122018;27;20072;-86
2022/09/30 03:43:54;;;;;;;3.75;1.80;;;;;;;;;;5109211;27;20065;-86
2022/09/30 03:46:45;;;;;;;2.35;1.55;;;;;;;;;;5101166;28;20043;-86
2022/09/30 03:49:31;;;;;;;4.65;2.03;;;;;;;;;;5114476;28;20457;-86
2022/09/30 03:52:16;;;;;;;3.22;1.73;;;;;;;;;;5108727;27;20039;-86
2022/09/30 03:55:03;;;;;;;2.92;1.80;;;;;;;;;;5102438;28;20031;-86
2022/09/30 03:57:50;;;;;;;2.97;1.85;;;;;;;;;;5111657;27;20038;-86
2022/09/30 04:00:37;;;;;;;2.67;1.80;;;;;;;;;;5106098;27;20033;-86
2022/09/30 04:03:22;;;;;;;4.45;2.00;;;;;;;;;;5101977;27;20398;-86
2022/09/30 04:06:09;;;;;;;4.75;2.22;;;;;;;;;;5109402;28;20445;-86
2022/09/30 04:08:54;;;;;;;3.85;1.42;;;;;;;;;;5099204;28;20049;-86
2022/09/30 04:11:38;;;;;;;3.30;2.15;;;;;;;;;;5098967;28;20505;-87
2022/09/30 04:14:23;;;;;;;2.60;1.40;;;;;;;;;;5094103;27;20038;-86
2022/09/30 04:17:07;;;;;;;3.05;1.60;;;;;;;;;;5117494;27;20035;-87
2022/09/30 04:19:52;;;;;;;2.30;1.30;;;;;;;;;;5098851;28;20377;-86
2022/09/30 04:22:36;;;;;;;3.55;1.85;;;;;;;;;;5098731;28;20043;-87
2022/09/30 04:25:21;;;;;;;5.35;2.55;;;;;;;;;;5099991;27;20038;-87
2022/09/30 04:28:05;;;;;;;2.53;1.60;;;;;;;;;;5119728;27;20069;-86
2022/09/30 04:30:54;;;;;;;3.92;1.25;;;;;;;;;;5090388;27;20061;-87
2022/09/30 04:33:39;;;;;;;3.08;1.60;;;;;;;;;;5118876;27;20110;-87
2022/09/30 04:36:24;;;;;;;3.63;1.73;;;;;;;;;;5130782;27;20041;-87
2022/09/30 04:39:08;;;;;;;2.88;1.75;;;;;;;;;;5119199;27;20042;-86
2022/09/30 04:41:55;;;;;;;4.18;1.95;;;;;;;;;;5111534;28;20251;-86
2022/09/30 04:44:40;;;;;;;2.28;1.38;;;;;;;;;;5096717;27;20543;-87
2022/09/30 04:47:25;;;;;;;2.50;1.58;;;;;;;;;;5108404;28;20565;-87
2022/09/30 04:50:09;;;;;;;3.80;1.90;;;;;;;;;;5098292;27;20108;-86
2022/09/30 04:52:56;;;;;;;3.60;1.77;;;;;;;;;;5113557;28;20077;-86
2022/09/30 04:55:43;;;;;;;3.20;1.52;;;;;;;;;;5092869;27;20544;-86
2022/09/30 04:58:31;;;;;;;11.35;2.38;;;;;;;;;;5119823;27;20133;-87
2022/09/30 05:01:17;;;;;;;3.50;1.80;;;;;;;;;;5106067;28;20043;-86
2022/09/30 05:04:02;;;;;;;3.17;1.83;;;;;;;;;;5098419;28;20089;-86
2022/09/30 05:06:48;;;;;;;5.00;1.83;;;;;;;;;;5097644;28;20554;-87
2022/09/30 05:09:35;;;;;;;4.22;1.55;;;;;;;;;;5084208;28;20065;-87
2022/09/30 05:12:22;;;;;;;4.00;2.05;;;;;;;;;;5089799;27;20041;-87
2022/09/30 05:15:07;;;;;;;2.90;1.95;;;;;;;;;;5117888;27;20521;-87
2022/09/30 05:17:56;;;;;;;2.95;1.45;;;;;;;;;;5124175;27;20153;-86
2022/09/30 05:20:41;;;;;;;5.72;2.08;;;;;;;;;;5108878;28;20042;-87
2022/09/30 05:23:27;;;;;;;3.03;1.83;;;;;;;;;;5111146;27;20114;-86
2022/09/30 05:26:12;;;;;;;2.95;1.70;;;;;;;;;;5110345;28;20080;-86
2022/09/30 05:28:57;;;;;;;3.13;1.98;;;;;;;;;;5110138;27;20050;-87
2022/09/30 05:31:42;;;;;;;2.53;1.42;;;;;;;;;;5116394;27;20042;-91
2022/09/30 05:34:26;;;;;;;3.08;1.63;;;;;;;;;;5097773;28;20058;-86
2022/09/30 05:37:10;;;;;;;3.63;1.77;;;;;;;;;;5086719;28;20035;-86
2022/09/30 05:39:55;;;;;;;3.88;1.65;;;;;;;;;;5126926;27;20046;-86
2022/09/30 05:42:40;;;;;;;3.08;2.08;;;;;;;;;;5097438;27;20088;-86
2022/09/30 05:45:25;;;;;;;2.80;1.83;;;;;;;;;;5118084;27;20115;-86
2022/09/30 05:48:10;;;;;;;3.83;1.70;;;;;;;;;;5118929;27;20049;-85
2022/09/30 05:50:57;;;;;;;3.03;1.80;;;;;;;;;;5103168;27;20062;-86
2022/09/30 05:53:42;;;;;;;4.00;2.42;;;;;;;;;;5098045;28;20084;-88
2022/09/30 05:56:27;;;;;;;4.63;2.20;;;;;;;;;;5101758;28;20407;-86
2022/09/30 05:59:13;;;;;;;4.97;2.00;;;;;;;;;;5097733;28;20104;-86
2022/09/30 06:01:58;;;;;;;9.55;2.38;;;;;;;;;;5111099;28;20095;-86
2022/09/30 06:04:43;;;;;;;4.35;2.00;;;;;;;;;;5097755;28;20589;-86
2022/09/30 06:07:27;;;;;;;4.45;2.00;;;;;;;;;;5090899;28;20441;-86
2022/09/30 06:10:11;;;;;;;4.03;2.00;;;;;;;;;;5101026;28;20047;-86
2022/09/30 06:12:58;;;;;;;3.78;1.63;;;;;;;;;;5107922;28;20050;-85
2022/09/30 06:15:42;;;;;;;3.17;1.95;;;;;;;;;;5098189;28;20043;-88
2022/09/30 06:18:27;;;;;;;6.20;2.20;;;;;;;;;;5111820;28;20079;-92
2022/09/30 06:21:14;;;;;;;5.57;2.38;;;;;;;;;;5097549;28;20065;-85
2022/09/30 06:23:59;;;;;;;2.70;1.80;;;;;;;;;;5112177;28;20050;-87
2022/09/30 06:26:46;;;;;;;4.13;2.20;;;;;;;;;;5100142;28;20066;-87
2022/09/30 06:29:34;;;;;;;4.00;2.40;;;;;;;;;;5101558;28;20093;-86
2022/09/30 06:32:23;;;;;;;5.05;2.22;;;;;;;;;;5121661;27;20039;-87
2022/09/30 06:35:09;;;;;;;4.43;2.80;;;;;;;;;;5121592;27;20092;-89
2022/09/30 06:37:56;;;;;;;4.95;2.70;;;;;;;;;;5115539;27;20031;-86
2022/09/30 06:40:48;;;;;;;7.18;3.50;;;;;;;;;;5112834;27;20083;-86
2022/09/30 06:43:36;;;;;;;9.65;3.33;;;;;;;;;;5108079;27;20062;-87
2022/09/30 06:46:29;;;;;;;4.32;2.58;;;;;;;;;;5107294;27;20065;-86
2022/09/30 06:49:16;;;;;;;6.03;3.38;;;;;;;;;;5109229;28;20062;-88
2022/09/30 06:52:01;;;;;;;8.07;2.92;;;;;;;;;;5101124;28;20039;-88
2022/09/30 06:54:48;;;;;;;4.95;2.70;;;;;;;;;;5101265;27;20402;-86
2022/09/30 06:57:34;;;;;;;3.92;2.83;;;;;;;;;;5101497;28;20097;-86
2022/09/30 07:00:19;;;;;;;5.63;3.08;;;;;;;;;;5105768;27;20042;-87
2022/09/30 07:03:14;;;;;;;6.10;2.80;;;;;;;;;;5122688;27;20553;-87
2022/09/30 07:06:03;;;;;;;6.35;2.80;;;;;;;;;;5125512;27;20061;-86
2022/09/30 07:08:47;;;;;;;5.97;3.25;;;;;;;;;;5116331;27;20118;-86
2022/09/30 07:11:36;;;;;;;4.72;3.30;;;;;;;;;;5129455;27;20038;-88
2022/09/30 07:14:22;;;;;;;6.00;3.25;;;;;;;;;;5106833;27;20034;-87
2022/09/30 07:17:07;;;;;;;7.85;4.15;;;;;;;;;;5103948;27;20080;-86
2022/09/30 07:19:51;;;;;;;6.97;4.18;;;;;;;;;;5086439;28;20057;-86
2022/09/30 07:22:38;;;;;;;7.40;3.72;;;;;;;;;;5101026;28;20041;-87
2022/09/30 07:25:23;;;;;;;7.03;4.40;;;;;;;;;;5101494;27;20046;-88
2022/09/30 07:28:12;;;;;;;8.32;4.50;;;;;;;;;;5099801;28;20109;-87
2022/09/30 07:31:02;;;;;;;6.68;4.15;;;;;;;;;;5114397;27;20509;-92
2022/09/30 07:33:51;;;;;;;7.22;3.70;;;;;;;;;;5100788;28;20039;-87
2022/09/30 07:36:38;;;;;;;5.00;3.28;;;;;;;;;;5100247;28;20131;-88
2022/09/30 07:39:23;;;;;;;4.78;3.42;;;;;;;;;;5113829;27;20046;-87
2022/09/30 07:42:10;;;;;;;5.90;3.60;;;;;;;;;;5120381;27;20038;-88
2022/09/30 07:44:55;;;;;;;6.00;3.55;;;;;;;;;;5102445;28;20066;-87
2022/09/30 07:47:42;;;;;;;7.78;4.13;;;;;;;;;;5100014;28;20440;-87
2022/09/30 07:50:26;;;;;;;7.93;4.35;;;;;;;;;;5115110;28;20600;-87
2022/09/30 07:53:11;;;;;;;7.05;4.38;;;;;;;;;;5114842;28;20173;-87
2022/09/30 07:55:56;;;;;;;5.88;3.75;;;;;;;;;;5099795;28;20054;-88
2022/09/30 07:58:40;;;;;;;4.95;2.92;;;;;;;;;;5129700;27;20498;-88
2022/09/30 08:01:31;;;;;;;4.88;2.90;;;;;;;;;;5099514;28;20133;-87
2022/09/30 08:04:17;;;;;;;6.32;3.40;;;;;;;;;;5095064;27;20089;-88
2022/09/30 08:07:03;;;;;;;5.43;3.25;;;;;;;;;;5135523;27;20037;-87
2022/09/30 08:09:48;;;;;;;6.05;3.28;;;;;;;;;;5106744;28;20043;-86
2022/09/30 08:12:32;;;;;;;5.95;3.15;;;;;;;;;;5099546;28;20038;-86
2022/09/30 08:15:17;;;;;;;6.45;3.40;;;;;;;;;;5113554;27;20486;-86
2022/09/30 08:18:04;;;;;;;6.95;3.72;;;;;;;;;;5094879;28;20050;-86
2022/09/30 08:20:49;;;;;;;12.98;3.70;;;;;;;;;;5114016;27;20434;-88
2022/09/30 08:23:36;;;;;;;7.05;3.42;;;;;;;;;;5085028;28;20085;-89
2022/09/30 08:26:23;;;;;;;8.05;2.90;;;;;;;;;;5098816;28;20078;-86
2022/09/30 08:29:10;;;;;;;7.25;3.58;;;;;;;;;;5128661;27;20068;-91
2022/09/30 08:31:54;;;;;;;5.80;2.83;;;;;;;;;;5114595;28;20055;-87
2022/09/30 08:34:42;;;;;;;5.60;3.28;;;;;;;;;;5092556;27;20042;-89
2022/09/30 08:37:27;;;;;;;5.30;3.00;;;;;;;;;;5102053;28;20077;-87
2022/09/30 08:40:19;;;;;;;4.95;2.88;;;;;;;;;;5085579;28;20042;-87
2022/09/30 08:43:12;;;;;;;5.70;3.08;;;;;;;;;;5112568;27;20054;-87
2022/09/30 08:46:06;;;;;;;7.60;3.35;;;;;;;;;;5106336;28;20549;-87
2022/09/30 08:48:55;;;;;;;6.18;2.65;;;;;;;;;;5113727;28;20173;-90
2022/09/30 08:51:48;;;;;;;5.07;2.70;;;;;;;;;;5116750;27;20153;-91
2022/09/30 08:54:37;;;;;;;7.53;3.90;;;;;;;;;;5122980;27;20114;-91
2022/09/30 08:57:28;;;;;;;4.90;3.20;;;;;;;;;;5117423;27;20073;-92
2022/09/30 09:00:16;;;;;;;4.22;2.70;;;;;;;;;;5112516;27;20066;-92
2022/09/30 09:03:03;;;;;;;5.40;2.85;;;;;;;;;;5113382;27;20081;-88
2022/09/30 09:06:26;;;;;;;6.47;3.40;;;13.20;99.90;;;;;;5126049;27;20031;-89
2022/09/30 09:09:10;;;;;;;7.13;3.58;;;;;;;;;;5104335;28;20064;-87
2022/09/30 09:12:16;;;;;;;6.35;3.22;;;;;;;;;;5115591;27;20042;-87
2022/09/30 09:15:12;;;;;;;5.22;3.05;;;;;;;;;;5102190;28;20084;-88
2022/09/30 09:18:16;;;;;;;5.25;3.25;;;;;;;;;;5110961;27;20092;-86
2022/09/30 09:21:19;;;;;;;5.90;2.88;;;;;;;;;;5107913;27;20057;-88
2022/09/30 09:24:05;;;;;;;7.20;3.45;;;;;;;;;;5100121;27;20108;-87
2022/09/30 09:26:52;;;;;;;6.63;3.65;;;;;;;;;;5097869;28;20066;-88
2022/09/30 09:29:43;;;;;;;6.43;3.47;;;;;;;;;;5112725;28;20043;-86
2022/09/30 09:32:30;;;;;;;6.00;3.35;;;;;;;;;;5110690;27;20532;-88
2022/09/30 09:35:24;;;;;;;8.43;4.10;;;;;;;;;;5118792;27;20041;-88
2022/09/30 09:38:29;;;;;;;8.15;4.13;;;;;;;;;;5125349;27;20034;-88
2022/09/30 09:41:43;;;;;;;8.93;4.13;;;15.00;99.90;;;;;;5107615;27;20038;-87
2022/09/30 09:44:48;;;;;;;6.30;3.45;;;;;;;;;;5103249;28;20066;-89
2022/09/30 09:47:36;;;;;;;8.45;4.03;;;;;;;;;;5082658;28;20069;-87
2022/09/30 09:50:27;;;;;;;6.32;3.50;;;;;;;;;;5107620;28;20116;-88
2022/09/30 09:53:35;;;;;;;6.30;3.13;;;;;;;;;;5111992;27;20034;-87
2022/09/30 09:56:21;;;;;;;4.25;2.85;;;;;;;;;;5114777;28;20096;-90
2022/09/30 09:59:16;;;;;;;6.05;2.85;;;;;;;;;;5110061;28;20096;-88
2022/09/30 10:02:04;;;;;;;4.03;2.42;;;;;;;;;;5110295;28;20030;-88
2022/09/30 10:04:58;;;;;;;3.97;2.40;;;;;;;;;;5097175;28;20034;-86
2022/09/30 10:07:46;;;;;;;6.55;2.13;;;;;;;;;;5104982;28;20038;-87
2022/09/30 10:10:40;;;;;;;3.75;1.63;;;;;;;;;;5109409;28;20074;-88
2022/09/30 10:13:25;;;;;;;2.22;1.35;;;;;;;;;;5114159;28;20057;-86
2022/09/30 10:16:26;;;;;;;2.13;1.30;;;;;;;;;;5113818;28;20038;-88
2022/09/30 10:19:21;;;;;;;2.03;1.10;;;;;;;;;;5103616;28;20069;-88
2022/09/30 10:22:16;;;;;;;2.63;1.15;;;;;;;;;;5115653;28;20034;-89
2022/09/30 10:25:22;;;;;;;2.30;1.20;;;;;;;;;;5106466;28;20082;-88
2022/09/30 10:28:31;;;;;;;2.30;1.20;;;;;;;;;;5111326;28;20037;-89
2022/09/30 10:31:26;;;;;;;5.43;1.00;;;;;;;;;;5113152;28;20046;-90
2022/09/30 10:34:20;;;;;;;2.70;1.30;;;;;;;;;;5096935;28;20065;-87
2022/09/30 10:37:14;;;;;;;1.80;1.08;;;;;;;;;;5105474;28;20085;-89
2022/09/30 10:40:11;;;;;;;1.75;1.02;;;;;;;;;;5096814;28;20038;-87
2022/09/30 10:42:57;;;;;;;1.83;1.10;;;;;;;;;;5111088;28;20092;-87
2022/09/30 10:45:44;;;;;;;2.80;1.20;;;;;;;;;;5096348;28;20165;-88
2022/09/30 10:48:33;;;;;;;1.80;1.05;;;;;;;;;;5110571;28;20046;-89
2022/09/30 10:51:22;;;;;;;4.68;1.35;;;;;;;;;;5076377;28;20067;-86
2022/09/30 10:54:34;;;;;;;2.50;1.35;;;;;;;;;;5081475;28;20067;-90
2022/09/30 10:57:26;;;;;;;2.50;1.40;;;;;;;;;;5083065;28;20032;-92
2022/09/30 11:00:11;;;;;;;1.75;1.13;;;;;;;;;;5072204;28;20032;-92
2022/09/30 11:03:22;;;;;;;2.47;1.40;;;;;;;;;;5071544;28;20040;-90
2022/09/30 11:06:10;;;;;;;3.00;1.85;;;;;;;;;;5070714;28;20063;-89
2022/09/30 11:08:57;;;;;;;2.40;1.52;;;;;;;;;;5070535;28;20535;-87
2022/09/30 11:11:50;;;;;;;2.90;1.58;;;;;;;;;;5084453;28;20062;-86
2022/09/30 11:15:06;;;;;;;2.70;1.67;;;17.90;99.90;;;;;;5074026;28;20058;-86
2022/09/30 11:17:59;;;;;;;3.22;2.08;;;;;;;;;;5040674;28;20093;-88
2022/09/30 11:20:53;;;;;;;16.17;4.90;;;;;;;;;;5073617;28;20075;-85
2022/09/30 11:23:43;;;;;;;13.90;3.85;;;;;;;;;;5073666;28;20043;-88
2022/09/30 11:26:30;;;;;;;2.58;1.40;;;;;;;;;;5074109;28;20035;-87
2022/09/30 11:29:34;;;;;;;4.32;1.48;;;;;;;;;;5073968;28;20082;-87
2022/09/30 11:32:43;;;;;;;4.50;1.95;;;;;;;;;;5074162;28;20137;-89
2022/09/30 11:35:30;;;;;;;2.40;1.27;;;;;;;;;;5073864;28;20063;-87
